Terminal Aerodrome Forecast
Issued by NWS Tallahassee, FL

Home | Current Version | Previous Version | Text Only | Print | Product List | Glossary On
Versions: 1 2 3 4 5 6 7 8 9 10 11 12 13 14 15 16 17 18 19 20
000
FTUS42 KTAE 260534
TAFTLH
TAF
KTLH 260534Z 2606/2706 23003KT 4SM BR SCT004
      TEMPO 2606/2610 1SM BR VV004
     FM261300 27010KT P6SM SCT025
     FM261800 27011G16KT P6SM SCT040=

USA.gov is the U.S. government's official web portal to all federal, state and local government web resources and services.